sensor_id;sensor_type;location;lat;lon;timestamp;temperature;humidity
6443;DHT22;3254;47.372;8.512;2023-03-14T00:02:13;8.80;99.90
6443;DHT22;3254;47.372;8.512;2023-03-14T00:04:39;8.60;99.90
6443;DHT22;3254;47.372;8.512;2023-03-14T00:07:04;8.50;99.90
6443;DHT22;3254;47.372;8.512;2023-03-14T00:09:30;8.30;99.90
6443;DHT22;3254;47.372;8.512;2023-03-14T00:11:56;8.30;99.90
6443;DHT22;3254;47.372;8.512;2023-03-14T00:14:23;8.30;99.90
6443;DHT22;3254;47.372;8.512;2023-03-14T00:16:48;8.30;99.90
6443;DHT22;3254;47.372;8.512;2023-03-14T00:19:14;8.30;99.90
6443;DHT22;3254;47.372;8.512;2023-03-14T00:21:41;8.10;99.90
6443;DHT22;3254;47.372;8.512;2023-03-14T00:24:07;8.10;99.90
6443;DHT22;3254;47.372;8.512;2023-03-14T00:26:33;8.00;99.90
6443;DHT22;3254;47.372;8.512;2023-03-14T00:28:59;8.00;99.90
6443;DHT22;3254;47.372;8.512;2023-03-14T00:31:24;7.90;99.90
6443;DHT22;3254;47.372;8.512;2023-03-14T00:33:53;7.90;99.90
6443;DHT22;3254;47.372;8.512;2023-03-14T00:36:20;7.80;99.90
6443;DHT22;3254;47.372;8.512;2023-03-14T00:38:47;7.80;99.90
6443;DHT22;3254;47.372;8.512;2023-03-14T00:41:15;7.60;99.90
6443;DHT22;3254;47.372;8.512;2023-03-14T00:43:42;7.50;99.90
6443;DHT22;3254;47.372;8.512;2023-03-14T00:46:08;7.30;99.90
6443;DHT22;3254;47.372;8.512;2023-03-14T00:48:34;7.30;99.90
6443;DHT22;3254;47.372;8.512;2023-03-14T00:51:03;7.20;99.90
6443;DHT22;3254;47.372;8.512;2023-03-14T00:53:29;7.20;99.90
6443;DHT22;3254;47.372;8.512;2023-03-14T00:55:54;7.10;99.90
6443;DHT22;3254;47.372;8.512;2023-03-14T00:58:20;7.10;99.90
6443;DHT22;3254;47.372;8.512;2023-03-14T01:00:46;7.10;99.90
6443;DHT22;3254;47.372;8.512;2023-03-14T01:03:13;7.00;99.90
6443;DHT22;3254;47.372;8.512;2023-03-14T01:05:39;7.10;99.90
6443;DHT22;3254;47.372;8.512;2023-03-14T01:08:07;7.10;99.90
6443;DHT22;3254;47.372;8.512;2023-03-14T01:10:38;7.10;99.90
6443;DHT22;3254;47.372;8.512;2023-03-14T01:13:04;7.10;99.90
6443;DHT22;3254;47.372;8.512;2023-03-14T01:15:31;7.10;99.90
6443;DHT22;3254;47.372;8.512;2023-03-14T01:17:57;7.00;99.90
6443;DHT22;3254;47.372;8.512;2023-03-14T01:20:23;7.00;99.90
6443;DHT22;3254;47.372;8.512;2023-03-14T01:22:49;7.10;99.90
6443;DHT22;3254;47.372;8.512;2023-03-14T01:25:16;7.10;99.90
6443;DHT22;3254;47.372;8.512;2023-03-14T01:27:42;7.10;99.90
6443;DHT22;3254;47.372;8.512;2023-03-14T01:30:09;7.00;99.90
6443;DHT22;3254;47.372;8.512;2023-03-14T01:32:35;7.00;99.90
6443;DHT22;3254;47.372;8.512;2023-03-14T01:35:01;6.90;99.90
6443;DHT22;3254;47.372;8.512;2023-03-14T01:37:26;7.00;99.90
6443;DHT22;3254;47.372;8.512;2023-03-14T01:39:52;7.00;99.90
6443;DHT22;3254;47.372;8.512;2023-03-14T01:42:17;7.00;99.90
6443;DHT22;3254;47.372;8.512;2023-03-14T01:44:54;6.90;99.90
6443;DHT22;3254;47.372;8.512;2023-03-14T01:47:22;6.90;99.90
6443;DHT22;3254;47.372;8.512;2023-03-14T01:50:08;7.00;99.90
6443;DHT22;3254;47.372;8.512;2023-03-14T01:52:43;7.00;99.90
6443;DHT22;3254;47.372;8.512;2023-03-14T01:55:17;6.90;99.90
6443;DHT22;3254;47.372;8.512;2023-03-14T01:57:59;6.90;99.90
6443;DHT22;3254;47.372;8.512;2023-03-14T02:00:28;7.00;99.90
6443;DHT22;3254;47.372;8.512;2023-03-14T02:02:58;7.00;99.90
6443;DHT22;3254;47.372;8.512;2023-03-14T02:05:34;6.90;99.90
6443;DHT22;3254;47.372;8.512;2023-03-14T02:08:02;7.00;99.90
6443;DHT22;3254;47.372;8.512;2023-03-14T02:10:33;7.00;99.90
6443;DHT22;3254;47.372;8.512;2023-03-14T02:13:03;7.10;99.90
6443;DHT22;3254;47.372;8.512;2023-03-14T02:15:31;7.00;99.90
6443;DHT22;3254;47.372;8.512;2023-03-14T02:18:00;7.10;99.90
6443;DHT22;3254;47.372;8.512;2023-03-14T02:23:19;7.20;99.90
6443;DHT22;3254;47.372;8.512;2023-03-14T02:25:56;7.20;99.90
6443;DHT22;3254;47.372;8.512;2023-03-14T02:28:22;7.30;99.90
6443;DHT22;3254;47.372;8.512;2023-03-14T02:30:51;7.40;99.90
6443;DHT22;3254;47.372;8.512;2023-03-14T02:33:18;7.50;99.90
6443;DHT22;3254;47.372;8.512;2023-03-14T02:36:01;7.50;99.90
6443;DHT22;3254;47.372;8.512;2023-03-14T02:40:56;7.60;99.90
6443;DHT22;3254;47.372;8.512;2023-03-14T02:43:22;7.60;99.90
6443;DHT22;3254;47.372;8.512;2023-03-14T02:45:50;7.70;99.90
6443;DHT22;3254;47.372;8.512;2023-03-14T02:48:39;7.90;99.90
6443;DHT22;3254;47.372;8.512;2023-03-14T02:51:06;7.90;99.90
6443;DHT22;3254;47.372;8.512;2023-03-14T02:53:35;7.90;99.90
6443;DHT22;3254;47.372;8.512;2023-03-14T02:56:06;7.80;99.90
6443;DHT22;3254;47.372;8.512;2023-03-14T02:58:32;7.90;99.90
6443;DHT22;3254;47.372;8.512;2023-03-14T03:00:57;7.90;99.90
6443;DHT22;3254;47.372;8.512;2023-03-14T03:03:23;8.00;99.90
6443;DHT22;3254;47.372;8.512;2023-03-14T03:05:51;8.00;99.90
6443;DHT22;3254;47.372;8.512;2023-03-14T03:08:18;8.00;99.90
6443;DHT22;3254;47.372;8.512;2023-03-14T03:10:44;7.90;99.90
6443;DHT22;3254;47.372;8.512;2023-03-14T03:13:10;7.90;99.90
6443;DHT22;3254;47.372;8.512;2023-03-14T03:15:36;8.00;99.90
6443;DHT22;3254;47.372;8.512;2023-03-14T03:18:03;8.10;99.90
6443;DHT22;3254;47.372;8.512;2023-03-14T03:20:29;8.10;99.90
6443;DHT22;3254;47.372;8.512;2023-03-14T03:22:56;8.00;99.90
6443;DHT22;3254;47.372;8.512;2023-03-14T03:25:22;8.10;99.90
6443;DHT22;3254;47.372;8.512;2023-03-14T03:27:47;8.10;99.90
6443;DHT22;3254;47.372;8.512;2023-03-14T03:30:13;8.00;99.90
6443;DHT22;3254;47.372;8.512;2023-03-14T03:32:39;8.10;99.90
6443;DHT22;3254;47.372;8.512;2023-03-14T03:35:05;8.10;99.90
6443;DHT22;3254;47.372;8.512;2023-03-14T03:37:32;8.00;99.90
6443;DHT22;3254;47.372;8.512;2023-03-14T03:40:01;8.00;99.90
6443;DHT22;3254;47.372;8.512;2023-03-14T03:42:30;7.90;99.90
6443;DHT22;3254;47.372;8.512;2023-03-14T03:44:56;8.00;99.90
6443;DHT22;3254;47.372;8.512;2023-03-14T03:47:21;8.00;99.90
6443;DHT22;3254;47.372;8.512;2023-03-14T03:49:47;7.90;99.90
6443;DHT22;3254;47.372;8.512;2023-03-14T03:52:13;7.90;99.90
6443;DHT22;3254;47.372;8.512;2023-03-14T03:54:39;7.90;99.90
6443;DHT22;3254;47.372;8.512;2023-03-14T03:57:04;7.90;99.90
6443;DHT22;3254;47.372;8.512;2023-03-14T03:59:30;8.00;99.90
6443;DHT22;3254;47.372;8.512;2023-03-14T04:01:56;7.90;99.90
6443;DHT22;3254;47.372;8.512;2023-03-14T04:04:23;7.90;99.90
6443;DHT22;3254;47.372;8.512;2023-03-14T04:06:49;8.00;99.90
6443;DHT22;3254;47.372;8.512;2023-03-14T04:09:14;8.00;99.90
6443;DHT22;3254;47.372;8.512;2023-03-14T04:11:40;8.00;99.90
6443;DHT22;3254;47.372;8.512;2023-03-14T04:14:07;8.00;99.90
6443;DHT22;3254;47.372;8.512;2023-03-14T04:16:33;7.90;99.90
6443;DHT22;3254;47.372;8.512;2023-03-14T04:19:02;7.90;99.90
6443;DHT22;3254;47.372;8.512;2023-03-14T04:21:27;7.90;99.90
6443;DHT22;3254;47.372;8.512;2023-03-14T04:23:53;7.90;93.10
6443;DHT22;3254;47.372;8.512;2023-03-14T04:26:19;7.80;70.50
6443;DHT22;3254;47.372;8.512;2023-03-14T04:28:45;8.00;49.90
6443;DHT22;3254;47.372;8.512;2023-03-14T04:31:13;8.00;54.10
6443;DHT22;3254;47.372;8.512;2023-03-14T04:33:39;8.10;34.10
6443;DHT22;3254;47.372;8.512;2023-03-14T04:36:06;8.10;34.40
6443;DHT22;3254;47.372;8.512;2023-03-14T04:38:32;8.00;38.50
6443;DHT22;3254;47.372;8.512;2023-03-14T04:40:58;7.90;49.10
6443;DHT22;3254;47.372;8.512;2023-03-14T04:43:25;7.80;42.80
6443;DHT22;3254;47.372;8.512;2023-03-14T04:45:53;7.70;42.90
6443;DHT22;3254;47.372;8.512;2023-03-14T04:48:19;7.90;24.70
6443;DHT22;3254;47.372;8.512;2023-03-14T04:50:46;8.00;26.50
6443;DHT22;3254;47.372;8.512;2023-03-14T04:53:12;7.80;28.20
6443;DHT22;3254;47.372;8.512;2023-03-14T04:55:38;7.80;30.80
6443;DHT22;3254;47.372;8.512;2023-03-14T04:58:07;7.80;28.90
6443;DHT22;3254;47.372;8.512;2023-03-14T05:00:34;7.80;32.80
6443;DHT22;3254;47.372;8.512;2023-03-14T05:02:59;7.70;27.70
6443;DHT22;3254;47.372;8.512;2023-03-14T05:05:26;7.80;28.10
6443;DHT22;3254;47.372;8.512;2023-03-14T05:07:52;7.90;17.30
6443;DHT22;3254;47.372;8.512;2023-03-14T05:10:18;7.90;18.20
6443;DHT22;3254;47.372;8.512;2023-03-14T05:12:43;7.80;21.30
6443;DHT22;3254;47.372;8.512;2023-03-14T05:15:09;8.00;13.10
6443;DHT22;3254;47.372;8.512;2023-03-14T05:17:35;8.00;8.10
6443;DHT22;3254;47.372;8.512;2023-03-14T05:20:02;8.30;2.60
6443;DHT22;3254;47.372;8.512;2023-03-14T05:22:33;8.20;1.00
6443;DHT22;3254;47.372;8.512;2023-03-14T05:25:00;8.30;1.00
6443;DHT22;3254;47.372;8.512;2023-03-14T05:27:29;8.20;8.60
6443;DHT22;3254;47.372;8.512;2023-03-14T05:29:55;8.20;1.00
6443;DHT22;3254;47.372;8.512;2023-03-14T05:32:20;8.10;5.70
6443;DHT22;3254;47.372;8.512;2023-03-14T05:34:49;8.00;6.30
6443;DHT22;3254;47.372;8.512;2023-03-14T05:37:14;8.00;1.00
6443;DHT22;3254;47.372;8.512;2023-03-14T05:39:40;8.10;1.00
6443;DHT22;3254;47.372;8.512;2023-03-14T05:42:06;8.10;1.00
6443;DHT22;3254;47.372;8.512;2023-03-14T05:44:32;7.90;1.00
6443;DHT22;3254;47.372;8.512;2023-03-14T05:46:57;7.90;1.00
6443;DHT22;3254;47.372;8.512;2023-03-14T05:49:23;7.70;3.30
6443;DHT22;3254;47.372;8.512;2023-03-14T05:51:48;7.70;1.00
6443;DHT22;3254;47.372;8.512;2023-03-14T05:54:15;7.80;1.00
6443;DHT22;3254;47.372;8.512;2023-03-14T05:56:41;7.90;1.00
6443;DHT22;3254;47.372;8.512;2023-03-14T05:59:07;7.90;1.00
6443;DHT22;3254;47.372;8.512;2023-03-14T06:01:34;7.70;1.00
6443;DHT22;3254;47.372;8.512;2023-03-14T06:04:00;7.70;1.00
6443;DHT22;3254;47.372;8.512;2023-03-14T06:06:27;7.90;1.00
6443;DHT22;3254;47.372;8.512;2023-03-14T06:08:53;7.80;1.00
6443;DHT22;3254;47.372;8.512;2023-03-14T06:11:18;7.70;1.00
6443;DHT22;3254;47.372;8.512;2023-03-14T06:13:44;7.60;3.10
6443;DHT22;3254;47.372;8.512;2023-03-14T06:16:09;7.50;4.60
6443;DHT22;3254;47.372;8.512;2023-03-14T06:18:35;7.40;3.70
6443;DHT22;3254;47.372;8.512;2023-03-14T06:21:02;7.40;1.00
6443;DHT22;3254;47.372;8.512;2023-03-14T06:23:29;7.40;3.20
6443;DHT22;3254;47.372;8.512;2023-03-14T06:25:57;7.50;1.10
6443;DHT22;3254;47.372;8.512;2023-03-14T06:28:22;7.50;1.00
6443;DHT22;3254;47.372;8.512;2023-03-14T06:30:48;7.40;6.00
6443;DHT22;3254;47.372;8.512;2023-03-14T06:33:13;7.30;6.50
6443;DHT22;3254;47.372;8.512;2023-03-14T06:35:41;7.30;6.30
6443;DHT22;3254;47.372;8.512;2023-03-14T06:38:07;7.30;2.90
6443;DHT22;3254;47.372;8.512;2023-03-14T06:40:34;7.30;3.00
6443;DHT22;3254;47.372;8.512;2023-03-14T06:43:00;7.30;3.50
6443;DHT22;3254;47.372;8.512;2023-03-14T06:45:26;7.30;1.70
6443;DHT22;3254;47.372;8.512;2023-03-14T06:47:52;7.30;1.40
6443;DHT22;3254;47.372;8.512;2023-03-14T06:50:18;7.20;5.10
6443;DHT22;3254;47.372;8.512;2023-03-14T06:52:43;7.10;8.40
6443;DHT22;3254;47.372;8.512;2023-03-14T06:55:15;7.10;7.60
6443;DHT22;3254;47.372;8.512;2023-03-14T06:57:41;7.00;9.50
6443;DHT22;3254;47.372;8.512;2023-03-14T07:00:10;7.20;4.70
6443;DHT22;3254;47.372;8.512;2023-03-14T07:02:35;7.30;2.50
6443;DHT22;3254;47.372;8.512;2023-03-14T07:05:01;7.20;2.50
6443;DHT22;3254;47.372;8.512;2023-03-14T07:07:31;7.30;1.00
6443;DHT22;3254;47.372;8.512;2023-03-14T07:09:57;7.30;4.30
6443;DHT22;3254;47.372;8.512;2023-03-14T07:12:24;7.40;3.10
6443;DHT22;3254;47.372;8.512;2023-03-14T07:14:49;7.50;1.00
6443;DHT22;3254;47.372;8.512;2023-03-14T07:17:15;7.70;1.00
6443;DHT22;3254;47.372;8.512;2023-03-14T07:19:40;8.00;1.00
6443;DHT22;3254;47.372;8.512;2023-03-14T07:22:06;8.30;1.00
6443;DHT22;3254;47.372;8.512;2023-03-14T07:24:32;8.50;1.00
6443;DHT22;3254;47.372;8.512;2023-03-14T07:26:57;8.60;1.00
6443;DHT22;3254;47.372;8.512;2023-03-14T07:29:24;8.70;1.00
6443;DHT22;3254;47.372;8.512;2023-03-14T07:31:51;8.70;1.00
6443;DHT22;3254;47.372;8.512;2023-03-14T07:34:17;8.80;1.00
6443;DHT22;3254;47.372;8.512;2023-03-14T07:36:49;8.80;1.00
6443;DHT22;3254;47.372;8.512;2023-03-14T07:39:16;8.90;1.00
6443;DHT22;3254;47.372;8.512;2023-03-14T07:41:42;9.00;1.00
6443;DHT22;3254;47.372;8.512;2023-03-14T07:44:09;9.00;1.00
6443;DHT22;3254;47.372;8.512;2023-03-14T07:46:38;9.10;1.00
6443;DHT22;3254;47.372;8.512;2023-03-14T07:49:14;9.20;1.00
6443;DHT22;3254;47.372;8.512;2023-03-14T07:51:40;9.20;1.00
6443;DHT22;3254;47.372;8.512;2023-03-14T07:54:06;9.20;1.00
6443;DHT22;3254;47.372;8.512;2023-03-14T07:56:33;9.30;1.00
6443;DHT22;3254;47.372;8.512;2023-03-14T07:58:59;9.50;1.00
6443;DHT22;3254;47.372;8.512;2023-03-14T08:01:25;9.40;1.00
6443;DHT22;3254;47.372;8.512;2023-03-14T08:03:50;9.50;1.00
6443;DHT22;3254;47.372;8.512;2023-03-14T08:06:16;9.40;1.00
6443;DHT22;3254;47.372;8.512;2023-03-14T08:08:42;9.50;1.00
6443;DHT22;3254;47.372;8.512;2023-03-14T08:11:08;9.50;1.00
6443;DHT22;3254;47.372;8.512;2023-03-14T08:13:35;9.40;1.00
6443;DHT22;3254;47.372;8.512;2023-03-14T08:16:01;9.60;1.00
6443;DHT22;3254;47.372;8.512;2023-03-14T08:18:27;9.80;1.00
6443;DHT22;3254;47.372;8.512;2023-03-14T08:20:53;9.80;1.00
6443;DHT22;3254;47.372;8.512;2023-03-14T08:23:18;9.80;1.00
6443;DHT22;3254;47.372;8.512;2023-03-14T08:25:44;9.80;1.00
6443;DHT22;3254;47.372;8.512;2023-03-14T08:28:10;9.70;1.00
6443;DHT22;3254;47.372;8.512;2023-03-14T08:30:35;9.60;1.00
6443;DHT22;3254;47.372;8.512;2023-03-14T08:33:02;9.60;1.00
6443;DHT22;3254;47.372;8.512;2023-03-14T08:35:27;9.50;1.00
6443;DHT22;3254;47.372;8.512;2023-03-14T08:37:54;9.60;1.00
6443;DHT22;3254;47.372;8.512;2023-03-14T08:40:22;9.80;1.00
6443;DHT22;3254;47.372;8.512;2023-03-14T08:42:47;10.00;1.00
6443;DHT22;3254;47.372;8.512;2023-03-14T08:45:15;10.10;1.00
6443;DHT22;3254;47.372;8.512;2023-03-14T08:47:42;10.40;1.00
6443;DHT22;3254;47.372;8.512;2023-03-14T08:50:09;10.50;1.00
6443;DHT22;3254;47.372;8.512;2023-03-14T08:52:35;10.70;1.00
6443;DHT22;3254;47.372;8.512;2023-03-14T08:55:00;11.10;1.00
6443;DHT22;3254;47.372;8.512;2023-03-14T08:57:26;11.20;1.00
6443;DHT22;3254;47.372;8.512;2023-03-14T08:59:55;11.10;1.00
6443;DHT22;3254;47.372;8.512;2023-03-14T09:02:22;11.20;1.00
6443;DHT22;3254;47.372;8.512;2023-03-14T09:04:50;11.30;1.00
6443;DHT22;3254;47.372;8.512;2023-03-14T09:07:16;11.20;1.00
6443;DHT22;3254;47.372;8.512;2023-03-14T09:09:41;11.00;1.00
6443;DHT22;3254;47.372;8.512;2023-03-14T09:12:07;11.00;1.00
6443;DHT22;3254;47.372;8.512;2023-03-14T09:14:32;10.60;1.00
6443;DHT22;3254;47.372;8.512;2023-03-14T09:16:58;10.60;1.00
6443;DHT22;3254;47.372;8.512;2023-03-14T09:19:24;10.70;1.00
6443;DHT22;3254;47.372;8.512;2023-03-14T09:21:51;10.60;1.00
6443;DHT22;3254;47.372;8.512;2023-03-14T09:24:17;10.70;1.00
6443;DHT22;3254;47.372;8.512;2023-03-14T09:26:42;10.80;1.00
6443;DHT22;3254;47.372;8.512;2023-03-14T09:29:08;10.80;1.00
6443;DHT22;3254;47.372;8.512;2023-03-14T09:31:34;11.00;1.00
6443;DHT22;3254;47.372;8.512;2023-03-14T09:34:00;11.20;1.00
6443;DHT22;3254;47.372;8.512;2023-03-14T09:36:26;11.20;1.00
6443;DHT22;3254;47.372;8.512;2023-03-14T09:38:51;11.10;1.00
6443;DHT22;3254;47.372;8.512;2023-03-14T09:41:35;11.10;1.00
6443;DHT22;3254;47.372;8.512;2023-03-14T09:44:49;11.20;1.00
6443;DHT22;3254;47.372;8.512;2023-03-14T09:46:51;11.00;1.00
6443;DHT22;3254;47.372;8.512;2023-03-14T09:49:33;10.80;1.00
6443;DHT22;3254;47.372;8.512;2023-03-14T09:52:02;10.90;1.00
6443;DHT22;3254;47.372;8.512;2023-03-14T09:54:37;11.00;1.00
6443;DHT22;3254;47.372;8.512;2023-03-14T09:57:05;10.70;1.00
6443;DHT22;3254;47.372;8.512;2023-03-14T09:59:31;10.90;1.00
6443;DHT22;3254;47.372;8.512;2023-03-14T10:02:01;10.80;1.00
6443;DHT22;3254;47.372;8.512;2023-03-14T10:04:29;10.60;1.00
6443;DHT22;3254;47.372;8.512;2023-03-14T10:06:55;10.50;1.00
6443;DHT22;3254;47.372;8.512;2023-03-14T10:09:23;10.60;1.00
6443;DHT22;3254;47.372;8.512;2023-03-14T10:11:55;10.50;1.00
6443;DHT22;3254;47.372;8.512;2023-03-14T10:14:37;10.50;1.00
6443;DHT22;3254;47.372;8.512;2023-03-14T10:17:08;10.50;1.00
6443;DHT22;3254;47.372;8.512;2023-03-14T10:19:36;10.50;1.00
6443;DHT22;3254;47.372;8.512;2023-03-14T10:22:04;10.30;1.00
6443;DHT22;3254;47.372;8.512;2023-03-14T10:24:35;10.20;1.00
6443;DHT22;3254;47.372;8.512;2023-03-14T10:27:05;9.90;1.00
6443;DHT22;3254;47.372;8.512;2023-03-14T10:29:33;9.80;1.00
6443;DHT22;3254;47.372;8.512;2023-03-14T10:32:10;9.60;1.00
6443;DHT22;3254;47.372;8.512;2023-03-14T10:34:44;9.60;1.00
6443;DHT22;3254;47.372;8.512;2023-03-14T10:37:23;9.60;1.00
6443;DHT22;3254;47.372;8.512;2023-03-14T10:39:52;9.60;1.00
6443;DHT22;3254;47.372;8.512;2023-03-14T10:42:24;9.80;1.00
6443;DHT22;3254;47.372;8.512;2023-03-14T10:44:58;10.00;1.00
6443;DHT22;3254;47.372;8.512;2023-03-14T10:47:27;9.80;1.00
6443;DHT22;3254;47.372;8.512;2023-03-14T10:49:55;9.70;1.00
6443;DHT22;3254;47.372;8.512;2023-03-14T10:52:26;9.60;1.00
6443;DHT22;3254;47.372;8.512;2023-03-14T10:54:59;9.50;1.00
6443;DHT22;3254;47.372;8.512;2023-03-14T10:57:25;9.30;1.00
6443;DHT22;3254;47.372;8.512;2023-03-14T10:59:52;9.10;1.00
6443;DHT22;3254;47.372;8.512;2023-03-14T11:05:30;8.90;1.00
6443;DHT22;3254;47.372;8.512;2023-03-14T11:08:06;8.40;1.00
6443;DHT22;3254;47.372;8.512;2023-03-14T11:10:35;8.10;1.00
6443;DHT22;3254;47.372;8.512;2023-03-14T11:13:09;7.90;1.00
6443;DHT22;3254;47.372;8.512;2023-03-14T11:18:51;7.60;25.20
6443;DHT22;3254;47.372;8.512;2023-03-14T11:24:06;7.10;33.00
6443;DHT22;3254;47.372;8.512;2023-03-14T11:35:19;6.40;99.90
6443;DHT22;3254;47.372;8.512;2023-03-14T11:37:54;6.40;99.90
6443;DHT22;3254;47.372;8.512;2023-03-14T11:40:25;6.30;99.90
6443;DHT22;3254;47.372;8.512;2023-03-14T11:45:35;6.30;99.90
6443;DHT22;3254;47.372;8.512;2023-03-14T11:48:29;6.20;99.90
6443;DHT22;3254;47.372;8.512;2023-03-14T11:50:59;6.30;99.90
6443;DHT22;3254;47.372;8.512;2023-03-14T11:53:36;6.40;99.90
6443;DHT22;3254;47.372;8.512;2023-03-14T11:56:13;6.40;99.90
6443;DHT22;3254;47.372;8.512;2023-03-14T11:58:47;6.50;99.90
6443;DHT22;3254;47.372;8.512;2023-03-14T12:01:14;6.50;99.90
6443;DHT22;3254;47.372;8.512;2023-03-14T12:03:58;6.50;99.90
6443;DHT22;3254;47.372;8.512;2023-03-14T12:06:31;6.40;99.90
6443;DHT22;3254;47.372;8.512;2023-03-14T12:09:01;6.50;99.90
6443;DHT22;3254;47.372;8.512;2023-03-14T12:11:49;6.40;99.90
6443;DHT22;3254;47.372;8.512;2023-03-14T12:16:47;6.50;93.10
6443;DHT22;3254;47.372;8.512;2023-03-14T12:19:24;6.70;94.60
6443;DHT22;3254;47.372;8.512;2023-03-14T12:24:30;6.80;62.70
6443;DHT22;3254;47.372;8.512;2023-03-14T12:26:59;6.70;44.60
6443;DHT22;3254;47.372;8.512;2023-03-14T12:29:24;6.70;45.30
6443;DHT22;3254;47.372;8.512;2023-03-14T12:32:08;6.80;34.00
6443;DHT22;3254;47.372;8.512;2023-03-14T12:34:39;6.90;28.90
6443;DHT22;3254;47.372;8.512;2023-03-14T12:43:00;6.70;59.70
6443;DHT22;3254;47.372;8.512;2023-03-14T12:45:36;6.70;47.10
6443;DHT22;3254;47.372;8.512;2023-03-14T12:48:22;6.80;28.10
6443;DHT22;3254;47.372;8.512;2023-03-14T12:50:56;6.90;20.20
6443;DHT22;3254;47.372;8.512;2023-03-14T12:53:53;7.10;12.20
6443;DHT22;3254;47.372;8.512;2023-03-14T12:59:31;6.70;15.80
6443;DHT22;3254;47.372;8.512;2023-03-14T13:04:44;6.30;36.30
6443;DHT22;3254;47.372;8.512;2023-03-14T13:07:33;6.10;54.50
6443;DHT22;3254;47.372;8.512;2023-03-14T13:10:04;6.10;49.90
6443;DHT22;3254;47.372;8.512;2023-03-14T13:12:40;6.10;47.00
6443;DHT22;3254;47.372;8.512;2023-03-14T13:15:18;6.10;56.50
6443;DHT22;3254;47.372;8.512;2023-03-14T13:17:46;6.20;48.30
6443;DHT22;3254;47.372;8.512;2023-03-14T13:20:23;6.30;47.80
6443;DHT22;3254;47.372;8.512;2023-03-14T13:22:50;6.40;49.00
6443;DHT22;3254;47.372;8.512;2023-03-14T13:25:19;6.60;42.30
6443;DHT22;3254;47.372;8.512;2023-03-14T13:27:47;6.90;39.30
6443;DHT22;3254;47.372;8.512;2023-03-14T13:30:27;7.10;25.00
6443;DHT22;3254;47.372;8.512;2023-03-14T13:32:55;7.40;17.80
6443;DHT22;3254;47.372;8.512;2023-03-14T13:35:28;7.70;19.70
6443;DHT22;3254;47.372;8.512;2023-03-14T13:38:01;7.80;9.90
6443;DHT22;3254;47.372;8.512;2023-03-14T13:40:33;7.70;8.40
6443;DHT22;3254;47.372;8.512;2023-03-14T13:43:46;7.90;5.90
6443;DHT22;3254;47.372;8.512;2023-03-14T13:45:51;8.20;1.00
6443;DHT22;3254;47.372;8.512;2023-03-14T13:48:18;8.40;1.00
6443;DHT22;3254;47.372;8.512;2023-03-14T13:51:06;8.40;1.00
6443;DHT22;3254;47.372;8.512;2023-03-14T13:53:31;8.30;1.00
6443;DHT22;3254;47.372;8.512;2023-03-14T13:56:02;8.40;1.00
6443;DHT22;3254;47.372;8.512;2023-03-14T13:58:31;8.40;1.00
6443;DHT22;3254;47.372;8.512;2023-03-14T14:01:20;8.40;1.00
6443;DHT22;3254;47.372;8.512;2023-03-14T14:03:50;8.50;1.00
6443;DHT22;3254;47.372;8.512;2023-03-14T14:06:37;8.40;1.00
6443;DHT22;3254;47.372;8.512;2023-03-14T14:09:10;8.50;1.00
6443;DHT22;3254;47.372;8.512;2023-03-14T14:11:50;8.50;1.00
6443;DHT22;3254;47.372;8.512;2023-03-14T14:16:49;9.50;1.00
6443;DHT22;3254;47.372;8.512;2023-03-14T14:19:16;9.40;1.00
6443;DHT22;3254;47.372;8.512;2023-03-14T14:21:44;9.20;1.00
6443;DHT22;3254;47.372;8.512;2023-03-14T14:24:15;9.10;1.00
6443;DHT22;3254;47.372;8.512;2023-03-14T14:30:28;8.60;1.00
6443;DHT22;3254;47.372;8.512;2023-03-14T14:33:20;8.70;1.00
6443;DHT22;3254;47.372;8.512;2023-03-14T14:36:17;9.40;1.00
6443;DHT22;3254;47.372;8.512;2023-03-14T14:38:52;10.20;1.00
6443;DHT22;3254;47.372;8.512;2023-03-14T14:41:18;11.10;1.00
6443;DHT22;3254;47.372;8.512;2023-03-14T14:43:44;11.20;1.00
6443;DHT22;3254;47.372;8.512;2023-03-14T14:46:17;11.60;1.00
6443;DHT22;3254;47.372;8.512;2023-03-14T14:48:44;11.90;1.00
6443;DHT22;3254;47.372;8.512;2023-03-14T14:51:23;12.30;1.00
6443;DHT22;3254;47.372;8.512;2023-03-14T14:53:59;11.60;1.00
6443;DHT22;3254;47.372;8.512;2023-03-14T14:56:27;10.70;1.00
6443;DHT22;3254;47.372;8.512;2023-03-14T14:59:01;10.40;1.00
6443;DHT22;3254;47.372;8.512;2023-03-14T15:01:37;10.00;1.00
6443;DHT22;3254;47.372;8.512;2023-03-14T15:04:12;9.90;1.00
6443;DHT22;3254;47.372;8.512;2023-03-14T15:06:43;10.00;1.00
6443;DHT22;3254;47.372;8.512;2023-03-14T15:09:13;10.10;1.00
6443;DHT22;3254;47.372;8.512;2023-03-14T15:11:38;10.20;1.00
6443;DHT22;3254;47.372;8.512;2023-03-14T15:14:04;10.40;1.00
6443;DHT22;3254;47.372;8.512;2023-03-14T15:16:30;10.50;1.00
6443;DHT22;3254;47.372;8.512;2023-03-14T15:18:59;11.40;1.00
6443;DHT22;3254;47.372;8.512;2023-03-14T15:21:26;11.60;1.00
6443;DHT22;3254;47.372;8.512;2023-03-14T15:23:54;11.10;1.00
6443;DHT22;3254;47.372;8.512;2023-03-14T15:26:22;10.70;1.00
6443;DHT22;3254;47.372;8.512;2023-03-14T15:28:48;10.40;1.00
6443;DHT22;3254;47.372;8.512;2023-03-14T15:31:16;10.30;1.00
6443;DHT22;3254;47.372;8.512;2023-03-14T15:33:45;10.00;1.00
6443;DHT22;3254;47.372;8.512;2023-03-14T15:36:29;9.80;1.00
6443;DHT22;3254;47.372;8.512;2023-03-14T15:38:56;9.60;1.00
6443;DHT22;3254;47.372;8.512;2023-03-14T15:43:58;8.40;1.00
6443;DHT22;3254;47.372;8.512;2023-03-14T15:46:23;6.80;99.90
6443;DHT22;3254;47.372;8.512;2023-03-14T15:48:50;6.20;99.90
6443;DHT22;3254;47.372;8.512;2023-03-14T15:51:16;6.20;99.90
6443;DHT22;3254;47.372;8.512;2023-03-14T15:53:42;6.10;99.90
6443;DHT22;3254;47.372;8.512;2023-03-14T15:56:17;6.10;99.90
6443;DHT22;3254;47.372;8.512;2023-03-14T15:58:43;6.10;99.90
6443;DHT22;3254;47.372;8.512;2023-03-14T16:01:12;6.10;99.90
6443;DHT22;3254;47.372;8.512;2023-03-14T16:03:37;6.10;99.90
6443;DHT22;3254;47.372;8.512;2023-03-14T16:06:04;6.00;99.90
6443;DHT22;3254;47.372;8.512;2023-03-14T16:08:29;5.70;99.90
6443;DHT22;3254;47.372;8.512;2023-03-14T16:10:56;5.60;99.90
6443;DHT22;3254;47.372;8.512;2023-03-14T16:13:22;5.50;99.90
6443;DHT22;3254;47.372;8.512;2023-03-14T16:16:02;5.50;99.90
6443;DHT22;3254;47.372;8.512;2023-03-14T16:18:30;5.70;99.90
6443;DHT22;3254;47.372;8.512;2023-03-14T16:20:58;5.70;99.90
6443;DHT22;3254;47.372;8.512;2023-03-14T16:23:25;5.70;99.90
6443;DHT22;3254;47.372;8.512;2023-03-14T16:25:51;5.80;99.90
6443;DHT22;3254;47.372;8.512;2023-03-14T16:28:17;5.90;99.90
6443;DHT22;3254;47.372;8.512;2023-03-14T16:30:42;6.00;99.90
6443;DHT22;3254;47.372;8.512;2023-03-14T16:33:08;6.00;96.50
6443;DHT22;3254;47.372;8.512;2023-03-14T16:35:38;5.80;78.90
6443;DHT22;3254;47.372;8.512;2023-03-14T16:38:04;5.80;86.70
6443;DHT22;3254;47.372;8.512;2023-03-14T16:40:29;5.90;80.50
6443;DHT22;3254;47.372;8.512;2023-03-14T16:42:55;5.90;76.10
6443;DHT22;3254;47.372;8.512;2023-03-14T16:45:21;5.90;72.60
6443;DHT22;3254;47.372;8.512;2023-03-14T16:47:46;5.90;47.30
6443;DHT22;3254;47.372;8.512;2023-03-14T16:50:12;5.80;46.70
6443;DHT22;3254;47.372;8.512;2023-03-14T16:52:37;5.70;59.70
6443;DHT22;3254;47.372;8.512;2023-03-14T16:55:03;5.60;65.90
6443;DHT22;3254;47.372;8.512;2023-03-14T16:57:30;5.60;55.70
6443;DHT22;3254;47.372;8.512;2023-03-14T16:59:56;5.60;51.80
6443;DHT22;3254;47.372;8.512;2023-03-14T17:02:21;5.40;65.00
6443;DHT22;3254;47.372;8.512;2023-03-14T17:04:47;5.40;50.70
6443;DHT22;3254;47.372;8.512;2023-03-14T17:07:12;5.30;53.30
6443;DHT22;3254;47.372;8.512;2023-03-14T17:09:38;5.30;56.50
6443;DHT22;3254;47.372;8.512;2023-03-14T17:12:04;5.30;43.20
6443;DHT22;3254;47.372;8.512;2023-03-14T17:14:30;5.30;37.50
6443;DHT22;3254;47.372;8.512;2023-03-14T17:16:55;5.30;36.10
6443;DHT22;3254;47.372;8.512;2023-03-14T17:19:21;5.30;32.40
6443;DHT22;3254;47.372;8.512;2023-03-14T17:21:46;5.30;32.80
6443;DHT22;3254;47.372;8.512;2023-03-14T17:24:12;5.40;31.50